sensor_id;sensor_type;location;lat;lon;timestamp;pressure;altitude;pressure_sealevel;temperature;humidity
70338;BME280;57757;53.198;19.646;2023-11-21T00:00:16;99603.05;;;0.54;79.13
70338;BME280;57757;53.198;19.646;2023-11-21T00:03:04;99603.56;;;0.53;79.17
70338;BME280;57757;53.198;19.646;2023-11-21T00:05:32;99605.12;;;0.56;79.22
70338;BME280;57757;53.198;19.646;2023-11-21T00:08:00;99605.48;;;0.57;79.26
70338;BME280;57757;53.198;19.646;2023-11-21T00:10:27;99613.17;;;0.58;79.26
70338;BME280;57757;53.198;19.646;2023-11-21T00:12:56;99616.27;;;0.61;79.19
70338;BME280;57757;53.198;19.646;2023-11-21T00:15:23;99615.61;;;0.61;79.29
70338;BME280;57757;53.198;19.646;2023-11-21T00:17:51;99619.02;;;0.62;79.13
70338;BME280;57757;53.198;19.646;2023-11-21T00:20:19;99624.52;;;0.63;79.29
70338;BME280;57757;53.198;19.646;2023-11-21T00:22:47;99628.30;;;0.64;79.14
70338;BME280;57757;53.198;19.646;2023-11-21T00:25:15;99624.88;;;0.66;79.15
70338;BME280;57757;53.198;19.646;2023-11-21T00:27:44;99620.25;;;0.64;78.94
70338;BME280;57757;53.198;19.646;2023-11-21T00:30:12;99624.86;;;0.64;79.03
70338;BME280;57757;53.198;19.646;2023-11-21T00:32:40;99628.13;;;0.65;79.07
70338;BME280;57757;53.198;19.646;2023-11-21T00:35:09;99628.98;;;0.67;79.17
70338;BME280;57757;53.198;19.646;2023-11-21T00:37:37;99632.42;;;0.68;79.10
70338;BME280;57757;53.198;19.646;2023-11-21T00:40:07;99629.69;;;0.70;79.27
70338;BME280;57757;53.198;19.646;2023-11-21T00:42:35;99625.78;;;0.72;79.21
70338;BME280;57757;53.198;19.646;2023-11-21T00:45:03;99630.20;;;0.71;78.95
70338;BME280;57757;53.198;19.646;2023-11-21T00:47:31;99629.34;;;0.68;78.86
70338;BME280;57757;53.198;19.646;2023-11-21T00:49:59;99630.55;;;0.68;79.07
70338;BME280;57757;53.198;19.646;2023-11-21T00:52:27;99635.17;;;0.68;79.11
70338;BME280;57757;53.198;19.646;2023-11-21T00:54:54;99637.91;;;0.69;79.07
70338;BME280;57757;53.198;19.646;2023-11-21T00:57:22;99639.61;;;0.67;78.93
70338;BME280;57757;53.198;19.646;2023-11-21T00:59:50;99643.85;;;0.66;78.91
70338;BME280;57757;53.198;19.646;2023-11-21T01:02:17;99644.71;;;0.64;78.96
70338;BME280;57757;53.198;19.646;2023-11-21T01:04:45;99651.39;;;0.64;78.82
70338;BME280;57757;53.198;19.646;2023-11-21T01:07:13;99653.77;;;0.61;78.91
70338;BME280;57757;53.198;19.646;2023-11-21T01:09:40;99655.95;;;0.59;78.85
70338;BME280;57757;53.198;19.646;2023-11-21T01:12:08;99656.46;;;0.57;78.91
70338;BME280;57757;53.198;19.646;2023-11-21T01:14:36;99649.95;;;0.57;78.83
70338;BME280;57757;53.198;19.646;2023-11-21T01:17:04;99652.17;;;0.55;78.82
70338;BME280;57757;53.198;19.646;2023-11-21T01:19:33;99652.33;;;0.53;78.97
70338;BME280;57757;53.198;19.646;2023-11-21T01:22:00;99655.07;;;0.53;78.92
70338;BME280;57757;53.198;19.646;2023-11-21T01:24:28;99657.45;;;0.51;78.86
70338;BME280;57757;53.198;19.646;2023-11-21T01:26:57;99660.00;;;0.49;78.87
70338;BME280;57757;53.198;19.646;2023-11-21T01:29:25;99666.32;;;0.50;78.93
70338;BME280;57757;53.198;19.646;2023-11-21T01:31:52;99666.67;;;0.51;78.99
70338;BME280;57757;53.198;19.646;2023-11-21T01:34:20;99668.37;;;0.49;78.75
70338;BME280;57757;53.198;19.646;2023-11-21T01:36:48;99672.27;;;0.43;78.66
70338;BME280;57757;53.198;19.646;2023-11-21T01:39:16;99670.84;;;0.38;78.70
70338;BME280;57757;53.198;19.646;2023-11-21T01:41:51;99668.10;;;0.37;78.72
70338;BME280;57757;53.198;19.646;2023-11-21T01:44:19;99668.77;;;0.36;78.84
70338;BME280;57757;53.198;19.646;2023-11-21T01:46:47;99668.78;;;0.38;78.94
70338;BME280;57757;53.198;19.646;2023-11-21T01:49:15;99673.96;;;0.41;78.87
70338;BME280;57757;53.198;19.646;2023-11-21T01:51:47;99673.58;;;0.39;78.74
70338;BME280;57757;53.198;19.646;2023-11-21T01:54:16;99679.23;;;0.39;78.86
70338;BME280;57757;53.198;19.646;2023-11-21T01:56:46;99680.09;;;0.40;78.80
70338;BME280;57757;53.198;19.646;2023-11-21T01:59:18;99684.34;;;0.37;78.56
70338;BME280;57757;53.198;19.646;2023-11-21T02:01:48;99681.61;;;0.37;78.84
70338;BME280;57757;53.198;19.646;2023-11-21T02:04:18;99682.84;;;0.40;78.99
70338;BME280;57757;53.198;19.646;2023-11-21T02:06:46;99687.47;;;0.41;78.74
70338;BME280;57757;53.198;19.646;2023-11-21T02:09:14;99684.38;;;0.42;78.93
70338;BME280;57757;53.198;19.646;2023-11-21T02:11:43;99686.27;;;0.43;78.86
70338;BME280;57757;53.198;19.646;2023-11-21T02:14:11;99693.79;;;0.42;78.72
70338;BME280;57757;53.198;19.646;2023-11-21T02:16:41;99696.19;;;0.41;78.84
70338;BME280;57757;53.198;19.646;2023-11-21T02:19:10;99702.86;;;0.43;78.77
70338;BME280;57757;53.198;19.646;2023-11-21T02:21:42;99704.41;;;0.43;78.67
70338;BME280;57757;53.198;19.646;2023-11-21T02:24:12;99706.29;;;0.43;78.84
70338;BME280;57757;53.198;19.646;2023-11-21T02:26:40;99704.59;;;0.44;78.85
70338;BME280;57757;53.198;19.646;2023-11-21T02:29:08;99704.23;;;0.41;78.61
70338;BME280;57757;53.198;19.646;2023-11-21T02:31:39;99704.52;;;0.38;78.69
70338;BME280;57757;53.198;19.646;2023-11-21T02:34:15;99709.66;;;0.38;78.74
70338;BME280;57757;53.198;19.646;2023-11-21T02:36:44;99711.05;;;0.38;78.78
70338;BME280;57757;53.198;19.646;2023-11-21T02:39:12;99704.71;;;0.39;78.82
70338;BME280;57757;53.198;19.646;2023-11-21T02:41:41;99700.27;;;0.39;78.76
70338;BME280;57757;53.198;19.646;2023-11-21T02:44:09;99700.42;;;0.38;78.75
70338;BME280;57757;53.198;19.646;2023-11-21T02:46:37;99705.41;;;0.40;78.90
70338;BME280;57757;53.198;19.646;2023-11-21T02:49:07;99704.57;;;0.41;78.85
70338;BME280;57757;53.198;19.646;2023-11-21T02:51:34;99709.54;;;0.41;78.82
70338;BME280;57757;53.198;19.646;2023-11-21T02:54:02;99708.16;;;0.41;78.72
70338;BME280;57757;53.198;19.646;2023-11-21T02:56:31;99713.30;;;0.41;78.70
70338;BME280;57757;53.198;19.646;2023-11-21T02:59:00;99716.36;;;0.40;78.64
70338;BME280;57757;53.198;19.646;2023-11-21T03:01:27;99719.25;;;0.39;78.53
70338;BME280;57757;53.198;19.646;2023-11-21T03:03:55;99719.23;;;0.38;78.62
70338;BME280;57757;53.198;19.646;2023-11-21T03:06:24;99719.23;;;0.36;78.65
70338;BME280;57757;53.198;19.646;2023-11-21T03:08:52;99721.46;;;0.37;78.58
70338;BME280;57757;53.198;19.646;2023-11-21T03:11:20;99722.64;;;0.35;78.53
70338;BME280;57757;53.198;19.646;2023-11-21T03:13:47;99723.30;;;0.33;78.61
70338;BME280;57757;53.198;19.646;2023-11-21T03:16:16;99730.29;;;0.31;78.50
70338;BME280;57757;53.198;19.646;2023-11-21T03:18:43;99735.09;;;0.31;78.43
70338;BME280;57757;53.198;19.646;2023-11-21T03:21:12;99739.69;;;0.31;78.48
70338;BME280;57757;53.198;19.646;2023-11-21T03:23:40;99741.23;;;0.31;78.51
70338;BME280;57757;53.198;19.646;2023-11-21T03:26:12;99740.73;;;0.32;78.62
70338;BME280;57757;53.198;19.646;2023-11-21T03:28:40;99743.77;;;0.29;78.33
70338;BME280;57757;53.198;19.646;2023-11-21T03:31:08;99743.08;;;0.27;78.54
70338;BME280;57757;53.198;19.646;2023-11-21T03:33:36;99744.96;;;0.27;78.56
70338;BME280;57757;53.198;19.646;2023-11-21T03:36:04;99747.02;;;0.26;78.48
70338;BME280;57757;53.198;19.646;2023-11-21T03:38:32;99743.08;;;0.27;78.49
70338;BME280;57757;53.198;19.646;2023-11-21T03:40:59;99745.30;;;0.27;78.55
70338;BME280;57757;53.198;19.646;2023-11-21T03:43:27;99748.72;;;0.28;78.42
70338;BME280;57757;53.198;19.646;2023-11-21T03:45:55;99749.09;;;0.29;78.59
70338;BME280;57757;53.198;19.646;2023-11-21T03:48:22;99750.29;;;0.29;78.63
70338;BME280;57757;53.198;19.646;2023-11-21T03:50:50;99748.77;;;0.30;78.62
70338;BME280;57757;53.198;19.646;2023-11-21T03:53:17;99747.23;;;0.30;78.54
70338;BME280;57757;53.198;19.646;2023-11-21T03:55:45;99752.86;;;0.30;78.56
70338;BME280;57757;53.198;19.646;2023-11-21T03:58:13;99749.91;;;0.27;78.44
70338;BME280;57757;53.198;19.646;2023-11-21T04:00:41;99751.23;;;0.23;78.08
70338;BME280;57757;53.198;19.646;2023-11-21T04:03:09;99752.55;;;0.17;78.05
70338;BME280;57757;53.198;19.646;2023-11-21T04:05:36;99755.95;;;0.15;78.12
70338;BME280;57757;53.198;19.646;2023-11-21T04:08:04;99755.58;;;0.14;78.27
70338;BME280;57757;53.198;19.646;2023-11-21T04:10:32;99755.39;;;0.12;78.27
70338;BME280;57757;53.198;19.646;2023-11-21T04:13:00;99758.29;;;0.12;78.33
70338;BME280;57757;53.198;19.646;2023-11-21T04:15:27;99761.21;;;0.13;78.37
70338;BME280;57757;53.198;19.646;2023-11-21T04:17:55;99764.66;;;0.15;78.40
70338;BME280;57757;53.198;19.646;2023-11-21T04:20:24;99767.92;;;0.17;78.40
70338;BME280;57757;53.198;19.646;2023-11-21T04:22:52;99771.87;;;0.17;78.35
70338;BME280;57757;53.198;19.646;2023-11-21T04:25:19;99771.54;;;0.18;78.38
70338;BME280;57757;53.198;19.646;2023-11-21T04:27:48;99770.68;;;0.18;78.36
70338;BME280;57757;53.198;19.646;2023-11-21T04:30:16;99773.90;;;0.16;78.15
70338;BME280;57757;53.198;19.646;2023-11-21T04:32:43;99774.07;;;0.16;78.29
70338;BME280;57757;53.198;19.646;2023-11-21T04:35:11;99772.03;;;0.17;78.42
70338;BME280;57757;53.198;19.646;2023-11-21T04:37:40;99775.46;;;0.18;78.43
70338;BME280;57757;53.198;19.646;2023-11-21T04:40:08;99781.29;;;0.19;78.35
70338;BME280;57757;53.198;19.646;2023-11-21T04:42:36;99786.58;;;0.19;78.38
70338;BME280;57757;53.198;19.646;2023-11-21T04:45:05;99789.33;;;0.18;78.37
70338;BME280;57757;53.198;19.646;2023-11-21T04:47:37;99788.81;;;0.19;78.33
70338;BME280;57757;53.198;19.646;2023-11-21T04:50:05;99783.83;;;0.17;78.26
70338;BME280;57757;53.198;19.646;2023-11-21T04:52:33;99787.90;;;0.15;78.15
70338;BME280;57757;53.198;19.646;2023-11-21T04:55:01;99795.38;;;0.10;77.97
70338;BME280;57757;53.198;19.646;2023-11-21T04:57:30;99801.46;;;0.05;77.93
70338;BME280;57757;53.198;19.646;2023-11-21T04:59:58;99800.75;;;0.04;78.12
70338;BME280;57757;53.198;19.646;2023-11-21T05:02:26;99809.48;;;0.05;78.16
70338;BME280;57757;53.198;19.646;2023-11-21T05:05:02;99814.95;;;0.05;78.24
70338;BME280;57757;53.198;19.646;2023-11-21T05:07:32;99821.30;;;0.05;78.28
70338;BME280;57757;53.198;19.646;2023-11-21T05:10:00;99826.76;;;0.04;78.11
70338;BME280;57757;53.198;19.646;2023-11-21T05:12:31;99830.48;;;0.02;78.11
70338;BME280;57757;53.198;19.646;2023-11-21T05:15:05;99831.29;;;-0.02;78.05
70338;BME280;57757;53.198;19.646;2023-11-21T05:17:43;99832.83;;;-0.02;78.25
70338;BME280;57757;53.198;19.646;2023-11-21T05:20:29;99838.14;;;-0.01;78.36
70338;BME280;57757;53.198;19.646;2023-11-21T05:22:56;99841.08;;;0.01;78.36
70338;BME280;57757;53.198;19.646;2023-11-21T05:25:26;99843.15;;;0.02;78.35
70338;BME280;57757;53.198;19.646;2023-11-21T05:27:54;99850.14;;;0.02;78.36
70338;BME280;57757;53.198;19.646;2023-11-21T05:30:22;99856.23;;;-0.03;78.09
70338;BME280;57757;53.198;19.646;2023-11-21T05:32:50;99856.04;;;-0.06;78.04
70338;BME280;57757;53.198;19.646;2023-11-21T05:35:17;99856.54;;;-0.06;78.06
70338;BME280;57757;53.198;19.646;2023-11-21T05:37:45;99862.52;;;-0.06;78.15
70338;BME280;57757;53.198;19.646;2023-11-21T05:40:14;99860.78;;;-0.08;78.00
70338;BME280;57757;53.198;19.646;2023-11-21T05:42:42;99864.16;;;-0.11;78.02
70338;BME280;57757;53.198;19.646;2023-11-21T05:45:10;99862.45;;;-0.11;78.02
70338;BME280;57757;53.198;19.646;2023-11-21T05:47:44;99870.48;;;-0.11;78.18
70338;BME280;57757;53.198;19.646;2023-11-21T05:50:15;99877.20;;;-0.08;78.17
70338;BME280;57757;53.198;19.646;2023-11-21T05:52:45;99877.02;;;-0.07;78.21
70338;BME280;57757;53.198;19.646;2023-11-21T05:55:13;99883.35;;;-0.07;78.12
70338;BME280;57757;53.198;19.646;2023-11-21T05:57:43;99893.59;;;-0.07;78.10
70338;BME280;57757;53.198;19.646;2023-11-21T06:00:13;99893.59;;;-0.09;78.11
70338;BME280;57757;53.198;19.646;2023-11-21T06:02:57;99895.35;;;-0.06;78.14
70338;BME280;57757;53.198;19.646;2023-11-21T06:05:26;99892.80;;;-0.04;78.02
70338;BME280;57757;53.198;19.646;2023-11-21T06:07:55;99894.88;;;-0.02;78.13
70338;BME280;57757;53.198;19.646;2023-11-21T06:10:29;99899.02;;;0.01;78.33
70338;BME280;57757;53.198;19.646;2023-11-21T06:12:58;99903.17;;;0.04;78.35
70338;BME280;57757;53.198;19.646;2023-11-21T06:15:30;99906.76;;;0.04;78.13
70338;BME280;57757;53.198;19.646;2023-11-21T06:17:58;99910.35;;;0.04;78.14
70338;BME280;57757;53.198;19.646;2023-11-21T06:20:27;99915.81;;;0.03;78.00
70338;BME280;57757;53.198;19.646;2023-11-21T06:22:55;99919.40;;;0.03;78.20
70338;BME280;57757;53.198;19.646;2023-11-21T06:25:23;99921.98;;;0.05;78.11
70338;BME280;57757;53.198;19.646;2023-11-21T06:27:50;99923.23;;;0.07;78.06
70338;BME280;57757;53.198;19.646;2023-11-21T06:30:20;99922.73;;;0.09;78.19
70338;BME280;57757;53.198;19.646;2023-11-21T06:32:49;99931.14;;;0.11;78.07
70338;BME280;57757;53.198;19.646;2023-11-21T06:35:18;99936.80;;;0.12;78.03
70338;BME280;57757;53.198;19.646;2023-11-21T06:37:46;99939.90;;;0.14;78.15
70338;BME280;57757;53.198;19.646;2023-11-21T06:40:19;99942.16;;;0.16;78.36
70338;BME280;57757;53.198;19.646;2023-11-21T06:42:48;99946.64;;;0.19;78.29
70338;BME280;57757;53.198;19.646;2023-11-21T06:45:18;99952.79;;;0.18;78.07
70338;BME280;57757;53.198;19.646;2023-11-21T06:47:47;99958.79;;;0.18;78.17
70338;BME280;57757;53.198;19.646;2023-11-21T06:50:16;99957.22;;;0.17;78.08
70338;BME280;57757;53.198;19.646;2023-11-21T06:52:43;99959.80;;;0.17;78.10
70338;BME280;57757;53.198;19.646;2023-11-21T06:55:11;99964.25;;;0.19;78.11
70338;BME280;57757;53.198;19.646;2023-11-21T06:57:39;99969.08;;;0.20;78.18
70338;BME280;57757;53.198;19.646;2023-11-21T07:00:07;99970.06;;;0.19;77.95
70338;BME280;57757;53.198;19.646;2023-11-21T07:02:38;99971.94;;;0.19;77.94
70338;BME280;57757;53.198;19.646;2023-11-21T07:05:07;99975.58;;;0.21;78.18
70338;BME280;57757;53.198;19.646;2023-11-21T07:07:35;99975.71;;;0.20;77.93
70338;BME280;57757;53.198;19.646;2023-11-21T07:10:04;99976.56;;;0.19;77.90
70338;BME280;57757;53.198;19.646;2023-11-21T07:12:33;99972.66;;;0.20;78.01
70338;BME280;57757;53.198;19.646;2023-11-21T07:15:01;99975.11;;;0.24;78.27
70338;BME280;57757;53.198;19.646;2023-11-21T07:17:30;99977.92;;;0.29;78.28
70338;BME280;57757;53.198;19.646;2023-11-21T07:19:58;99981.75;;;0.34;78.29
70338;BME280;57757;53.198;19.646;2023-11-21T07:22:26;99983.51;;;0.37;78.21
70338;BME280;57757;53.198;19.646;2023-11-21T07:24:55;99986.83;;;0.42;78.14
70338;BME280;57757;53.198;19.646;2023-11-21T07:27:24;99980.04;;;0.46;78.26
70338;BME280;57757;53.198;19.646;2023-11-21T07:29:51;99981.61;;;0.48;78.12
70338;BME280;57757;53.198;19.646;2023-11-21T07:32:19;99988.83;;;0.49;78.12
70338;BME280;57757;53.198;19.646;2023-11-21T07:34:47;99987.80;;;0.49;77.95
70338;BME280;57757;53.198;19.646;2023-11-21T07:37:14;99997.16;;;0.46;77.88
70338;BME280;57757;53.198;19.646;2023-11-21T07:39:42;99998.36;;;0.46;78.04
70338;BME280;57757;53.198;19.646;2023-11-21T07:42:10;99995.79;;;0.47;78.00
70338;BME280;57757;53.198;19.646;2023-11-21T07:44:38;99994.23;;;0.45;77.95
70338;BME280;57757;53.198;19.646;2023-11-21T07:47:06;100001.10;;;0.47;77.96
70338;BME280;57757;53.198;19.646;2023-11-21T07:49:34;100001.79;;;0.47;78.02
70338;BME280;57757;53.198;19.646;2023-11-21T07:52:02;100003.20;;;0.49;78.04
70338;BME280;57757;53.198;19.646;2023-11-21T07:54:30;100010.20;;;0.49;77.84
70338;BME280;57757;53.198;19.646;2023-11-21T07:56:57;100012.06;;;0.48;77.96
70338;BME280;57757;53.198;19.646;2023-11-21T07:59:25;100013.52;;;0.54;78.05
70338;BME280;57757;53.198;19.646;2023-11-21T08:01:53;100007.26;;;0.59;78.16
70338;BME280;57757;53.198;19.646;2023-11-21T08:04:20;100001.30;;;0.62;78.07
70338;BME280;57757;53.198;19.646;2023-11-21T08:06:48;100005.27;;;0.64;77.90
70338;BME280;57757;53.198;19.646;2023-11-21T08:09:16;100008.55;;;0.66;77.89
70338;BME280;57757;53.198;19.646;2023-11-21T08:11:45;100007.73;;;0.68;77.95
70338;BME280;57757;53.198;19.646;2023-11-21T08:14:14;100008.27;;;0.70;77.82
70338;BME280;57757;53.198;19.646;2023-11-21T08:16:42;100007.45;;;0.73;77.79
70338;BME280;57757;53.198;19.646;2023-11-21T08:19:12;100011.96;;;0.78;78.08
70338;BME280;57757;53.198;19.646;2023-11-21T08:21:40;100015.59;;;0.81;77.89
70338;BME280;57757;53.198;19.646;2023-11-21T08:24:07;100019.56;;;0.83;77.69
70338;BME280;57757;53.198;19.646;2023-11-21T08:26:38;100023.00;;;0.85;77.67
70338;BME280;57757;53.198;19.646;2023-11-21T08:29:06;100027.29;;;0.84;77.70
70338;BME280;57757;53.198;19.646;2023-11-21T08:31:35;100033.94;;;0.83;77.40
70338;BME280;57757;53.198;19.646;2023-11-21T08:34:03;100033.73;;;0.80;77.47
70338;BME280;57757;53.198;19.646;2023-11-21T08:36:31;100037.88;;;0.83;77.52
70338;BME280;57757;53.198;19.646;2023-11-21T08:38:59;100040.46;;;0.84;77.58
70338;BME280;57757;53.198;19.646;2023-11-21T08:41:27;100036.40;;;0.88;77.70
70338;BME280;57757;53.198;19.646;2023-11-21T08:43:55;100033.39;;;0.94;77.72
70338;BME280;57757;53.198;19.646;2023-11-21T08:46:23;100037.89;;;0.98;77.66
70338;BME280;57757;53.198;19.646;2023-11-21T08:48:53;100042.21;;;1.01;77.82
70338;BME280;57757;53.198;19.646;2023-11-21T08:51:21;100041.80;;;1.09;77.79
70338;BME280;57757;53.198;19.646;2023-11-21T08:53:48;100043.59;;;1.15;77.80
70338;BME280;57757;53.198;19.646;2023-11-21T08:56:16;100042.98;;;1.21;77.71
70338;BME280;57757;53.198;19.646;2023-11-21T08:58:44;100040.52;;;1.30;78.01
70338;BME280;57757;53.198;19.646;2023-11-21T09:01:13;100040.64;;;1.40;77.92
70338;BME280;57757;53.198;19.646;2023-11-21T09:03:40;100037.63;;;1.47;77.71
70338;BME280;57757;53.198;19.646;2023-11-21T09:06:09;100040.43;;;1.53;77.67
70338;BME280;57757;53.198;19.646;2023-11-21T09:08:37;100040.31;;;1.59;77.56
70338;BME280;57757;53.198;19.646;2023-11-21T09:11:05;100043.65;;;1.67;77.72
70338;BME280;57757;53.198;19.646;2023-11-21T09:13:33;100044.05;;;1.73;77.52
70338;BME280;57757;53.198;19.646;2023-11-21T09:16:02;100040.16;;;1.77;77.55
70338;BME280;57757;53.198;19.646;2023-11-21T09:18:30;100040.39;;;1.83;77.41
70338;BME280;57757;53.198;19.646;2023-11-21T09:20:58;100048.81;;;1.85;77.36
70338;BME280;57757;53.198;19.646;2023-11-21T09:23:26;100050.42;;;1.93;77.68
70338;BME280;57757;53.198;19.646;2023-11-21T09:25:54;100046.57;;;2.03;77.74
70338;BME280;57757;53.198;19.646;2023-11-21T09:28:24;100049.21;;;2.12;77.75
70338;BME280;57757;53.198;19.646;2023-11-21T09:30:52;100052.89;;;2.20;77.68
70338;BME280;57757;53.198;19.646;2023-11-21T09:33:20;100052.26;;;2.26;77.72
70338;BME280;57757;53.198;19.646;2023-11-21T09:35:50;100054.52;;;2.31;77.62
70338;BME280;57757;53.198;19.646;2023-11-21T09:38:19;100059.52;;;2.34;77.58
70338;BME280;57757;53.198;19.646;2023-11-21T09:40:47;100062.97;;;2.36;77.52
70338;BME280;57757;53.198;19.646;2023-11-21T09:43:16;100063.52;;;2.40;77.57
70338;BME280;57757;53.198;19.646;2023-11-21T09:45:47;100062.48;;;2.43;77.49
70338;BME280;57757;53.198;19.646;2023-11-21T09:48:16;100062.51;;;2.43;77.46
70338;BME280;57757;53.198;19.646;2023-11-21T09:50:46;100066.80;;;2.43;77.30
70338;BME280;57757;53.198;19.646;2023-11-21T09:53:20;100064.01;;;2.37;76.97
70338;BME280;57757;53.198;19.646;2023-11-21T09:55:51;100066.40;;;2.35;77.04
70338;BME280;57757;53.198;19.646;2023-11-21T09:58:21;100067.27;;;2.36;77.01
70338;BME280;57757;53.198;19.646;2023-11-21T10:00:53;100070.20;;;2.38;77.19
70338;BME280;57757;53.198;19.646;2023-11-21T10:03:21;100072.95;;;2.41;77.08
70338;BME280;57757;53.198;19.646;2023-11-21T10:05:50;100074.52;;;2.43;76.91
70338;BME280;57757;53.198;19.646;2023-11-21T10:08:22;100079.19;;;2.47;77.17
70338;BME280;57757;53.198;19.646;2023-11-21T10:10:53;100079.91;;;2.52;77.04
70338;BME280;57757;53.198;19.646;2023-11-21T10:13:20;100080.61;;;2.55;77.05
70338;BME280;57757;53.198;19.646;2023-11-21T10:15:50;100077.53;;;2.58;77.09
70338;BME280;57757;53.198;19.646;2023-11-21T10:18:19;100080.30;;;2.59;77.06
70338;BME280;57757;53.198;19.646;2023-11-21T10:20:46;100078.23;;;2.56;76.84
70338;BME280;57757;53.198;19.646;2023-11-21T10:23:23;100080.59;;;2.52;76.75
70338;BME280;57757;53.198;19.646;2023-11-21T10:25:52;100081.94;;;2.47;76.74
70338;BME280;57757;53.198;19.646;2023-11-21T10:28:22;100079.82;;;2.42;76.72
70338;BME280;57757;53.198;19.646;2023-11-21T10:30:50;100083.42;;;2.42;76.90
70338;BME280;57757;53.198;19.646;2023-11-21T10:33:27;100083.77;;;2.40;76.69
70338;BME280;57757;53.198;19.646;2023-11-21T10:35:56;100087.70;;;2.39;76.86
70338;BME280;57757;53.198;19.646;2023-11-21T10:38:24;100087.86;;;2.37;76.71
70338;BME280;57757;53.198;19.646;2023-11-21T10:40:54;100088.00;;;2.33;76.85
70338;BME280;57757;53.198;19.646;2023-11-21T10:43:25;100094.36;;;2.35;76.72
70338;BME280;57757;53.198;19.646;2023-11-21T10:45:57;100089.62;;;2.66;79.79
70338;BME280;57757;53.198;19.646;2023-11-21T10:48:27;100092.17;;;3.80;83.96
70338;BME280;57757;53.198;19.646;2023-11-21T10:50:55;100086.25;;;4.65;80.54
70338;BME280;57757;53.198;19.646;2023-11-21T10:53:28;100083.50;;;4.58;76.54
70338;BME280;57757;53.198;19.646;2023-11-21T10:56:05;100089.70;;;4.26;75.20
70338;BME280;57757;53.198;19.646;2023-11-21T10:58:38;100094.16;;;4.09;75.23
70338;BME280;57757;53.198;19.646;2023-11-21T11:01:06;100095.70;;;4.00;75.19
70338;BME280;57757;53.198;19.646;2023-11-21T11:03:36;100093.09;;;3.88;75.45
70338;BME280;57757;53.198;19.646;2023-11-21T11:06:05;100096.85;;;3.78;75.63
70338;BME280;57757;53.198;19.646;2023-11-21T11:08:35;100099.58;;;3.68;75.87
70338;BME280;57757;53.198;19.646;2023-11-21T11:11:05;100103.68;;;3.59;75.84
70338;BME280;57757;53.198;19.646;2023-11-21T11:13:33;100102.45;;;3.51;75.82
70338;BME280;57757;53.198;19.646;2023-11-21T11:16:01;100102.76;;;3.42;75.86
70338;BME280;57757;53.198;19.646;2023-11-21T11:18:30;100104.77;;;3.32;75.81
70338;BME280;57757;53.198;19.646;2023-11-21T11:21:14;100104.60;;;3.29;76.07
70338;BME280;57757;53.198;19.646;2023-11-21T11:27:37;100100.08;;;3.20;76.06
70338;BME280;57757;53.198;19.646;2023-11-21T11:32:35;100105.04;;;3.15;76.03
70338;BME280;57757;53.198;19.646;2023-11-21T11:35:16;100106.55;;;3.08;76.02
70338;BME280;57757;53.198;19.646;2023-11-21T11:37:45;100101.05;;;3.08;75.92
70338;BME280;57757;53.198;19.646;2023-11-21T11:40:13;100104.27;;;3.00;75.71
70338;BME280;57757;53.198;19.646;2023-11-21T11:42:56;100104.45;;;3.01;76.03
70338;BME280;57757;53.198;19.646;2023-11-21T11:45:32;100107.38;;;3.04;76.29
70338;BME280;57757;53.198;19.646;2023-11-21T11:48:01;100108.23;;;3.04;76.08
70338;BME280;57757;53.198;19.646;2023-11-21T11:50:31;100105.17;;;3.08;76.37
70338;BME280;57757;53.198;19.646;2023-11-21T11:53:15;100110.33;;;3.09;76.18
70338;BME280;57757;53.198;19.646;2023-11-21T11:55:43;100113.09;;;3.12;76.33
70338;BME280;57757;53.198;19.646;2023-11-21T11:58:11;100118.60;;;3.13;76.27
70338;BME280;57757;53.198;19.646;2023-11-21T12:00:39;100117.23;;;3.15;76.21
70338;BME280;57757;53.198;19.646;2023-11-21T12:03:09;100122.73;;;3.15;76.35
70338;BME280;57757;53.198;19.646;2023-11-21T12:05:37;100127.19;;;3.13;76.18
70338;BME280;57757;53.198;19.646;2023-11-21T12:08:11;100133.85;;;3.07;75.95
70338;BME280;57757;53.198;19.646;2023-11-21T12:10:39;100130.22;;;3.04;76.01
70338;BME280;57757;53.198;19.646;2023-11-21T12:13:10;100128.33;;;3.01;76.00
70338;BME280;57757;53.198;19.646;2023-11-21T12:15:40;100133.45;;;2.98;75.87
70338;BME280;57757;53.198;19.646;2023-11-21T12:18:09;100139.27;;;2.95;75.85
70338;BME280;57757;53.198;19.646;2023-11-21T12:20:37;100142.34;;;2.92;75.97
70338;BME280;57757;53.198;19.646;2023-11-21T12:23:08;100145.77;;;2.92;75.87
70338;BME280;57757;53.198;19.646;2023-11-21T12:25:38;100151.29;;;2.91;75.89
70338;BME280;57757;53.198;19.646;2023-11-21T12:28:08;100149.73;;;2.91;75.89
70338;BME280;57757;53.198;19.646;2023-11-21T12:30:36;100152.14;;;2.91;75.76
70338;BME280;57757;53.198;19.646;2023-11-21T12:33:06;100154.34;;;2.86;75.58
70338;BME280;57757;53.198;19.646;2023-11-21T12:35:38;100159.12;;;2.83;75.71
70338;BME280;57757;53.198;19.646;2023-11-21T12:38:06;100163.73;;;2.81;75.60
70338;BME280;57757;53.198;19.646;2023-11-21T12:40:36;100166.10;;;2.75;75.54
70338;BME280;57757;53.198;19.646;2023-11-21T12:43:04;100165.02;;;2.69;75.31
70338;BME280;57757;53.198;19.646;2023-11-21T12:45:32;100174.78;;;2.66;75.51
70338;BME280;57757;53.198;19.646;2023-11-21T12:48:03;100175.11;;;2.65;75.41
70338;BME280;57757;53.198;19.646;2023-11-21T12:50:38;100180.75;;;2.62;75.33
70338;BME280;57757;53.198;19.646;2023-11-21T12:53:12;100178.87;;;2.62;75.36
70338;BME280;57757;53.198;19.646;2023-11-21T12:55:40;100182.11;;;2.60;75.29
70338;BME280;57757;53.198;19.646;2023-11-21T12:58:10;100184.86;;;2.59;75.26
70338;BME280;57757;53.198;19.646;2023-11-21T13:00:44;100190.54;;;2.60;75.33
70338;BME280;57757;53.198;19.646;2023-11-21T13:03:13;100190.17;;;2.59;75.18
70338;BME280;57757;53.198;19.646;2023-11-21T13:05:47;100188.30;;;2.59;75.08
70338;BME280;57757;53.198;19.646;2023-11-21T13:08:21;100189.30;;;2.58;75.24
70338;BME280;57757;53.198;19.646;2023-11-21T13:10:55;100190.34;;;2.59;75.32